Main page
METAR-TAF:

METAR-TAF

Airports :

Leuchars, Scotland

Leuchars Station

latitude: 56-23N, longitude: 002-52W, elevation: 12 m

Current weather observation

The report was made 39 minutes ago, at 01:50 UTC
Wind 3 kt from the West
Temperature 0°C
Humidity 93%
Pressure 1018 hPa
Visibility 10 km or more
Overcast at a height of 4600 ft

METAR: EGQL 170150Z 26003KT 9999 OVC046 M00/M01 Q1018 BLU

Time: 02:29 (02:29 UTC)

Forecast

The report was made 4 hours and 10 minutes ago, at 22:19 UTC
Forecast valid from 17 at 00 UTC to 17 at 09 UTC
Wind 8 kt from the West/Southwest
Visibility 10 km or more
Few clouds at a height of 4000 ft
Temporary
from 17 at 03 UTC to 17 at 09 UTC
Visibility: 7000 m
Scattered clouds at a height of 2000 ft
rain
Probability 40% :
Temporary
from 17 at 03 UTC to 17 at 09 UTC
Visibility: 4000 m
Scattered clouds at a height of 800 ft
Broken clouds at a height of 2000 ft
rain, drizzle

TAF: EGQL 162219Z 1700/1709 25008KT 9999 FEW040 TEMPO 1703/1709 7000 RA SCT020 PROB40 TEMPO 1703/1709 4000 RADZ SCT008 BKN020

Weather observations and forecasts of more than 4000 airports (METAR and TAF reports).

The available stations are represented by yellow and red dots on the map.

Hover mouse over dot to see the name of the station.

Then click to see weather observations and forecasts.

To change the map : click on the green buttons with a black cross to zoom in, on the green button with a dash to zoom out, or on the green arrows for adjacent maps.


METAR-TAF: